• Join FlightAware (Why Join?)
  • Login
  • US Flag 
01:17AM EDT


 

Airport Tracker/Info


-or-


 

Live Flight TrackerFlight Track Log ✈ UAL262 ✈ 10-Oct-2013 ✈ KSEA - KIAD

Flight Track Log - Related Links

Times and Time Zones

All times are in EDT time to prevent confusion due to time zone crossing. See the UAL262 flight status page for this flight to view local times or setup timezone preferences in your user account.

Time Position Orientation Groundspeed Altitude Reporting Facility
EDT Latitude Longitude Course Direction KTS MPH feet Rate Location/Type
01:18AM 47.4239 -122.3100 174° South 188 216 1,300  Level Seattle Center
01:18AM 47.4172 -122.3089 174° South 170 196 1,700 1,980 Climbing Seattle Center
01:18AM 47.3931 -122.3106 183° South 178 205 2,500 1,800 Climbing Seattle Center
01:19AM 47.3669 -122.3094 178° South 179 206 3,500 1,620 Climbing Seattle Center
01:19AM 47.3408 -122.3067 176° South 194 223 4,200 1,440 Climbing Seattle Center
01:20AM 47.3286 -122.2667 114° Southeast 214 246 5,000 1,320 Climbing Seattle Center
01:20AM 47.3283 -122.2219 91° East 242 278 5,600 1,560 Climbing Seattle Center
01:21AM 47.3294 -122.1644 88° East 252 290 6,600 2,280 Climbing Seattle Center
01:21AM 47.3286 -122.1106 91° East 288 331 7,900 2,520 Climbing Seattle Center
01:22AM 47.3558 -122.0633 50° Northeast 284 327 9,200 1,920 Climbing Seattle Center
01:23AM 47.4178 -121.9706 45° Northeast 298 343 10,900 1,200 Climbing Seattle Center
01:24AM 47.4858 -121.8619 47° Northeast 360 414 11,700 1,380 Climbing Seattle Center
01:25AM 47.5567 -121.7386 50° Northeast 392 451 13,700 1,860 Climbing Seattle Center
01:26AM 47.5592 -121.5700 89° East 414 476 15,500 1,740 Climbing Seattle Center
01:27AM 47.5578 -121.3969 91° East 421 484 17,300 1,380 Climbing Seattle Center
01:28AM 47.5544 -121.2361 92° East 430 495 18,400 1,200 Climbing Seattle Center
01:29AM 47.5514 -121.0544 91° East 441 507 19,800 1,320 Climbing Seattle Center
01:30AM 47.5478 -120.8692 92° East 450 518 21,100 1,080 Climbing Seattle Center
01:31AM 47.5450 -120.6844 91° East 464 534 22,000 840 Climbing Seattle Center
01:32AM 47.5400 -120.4897 92° East 475 547 22,800 840 Climbing Seattle Center
01:33AM 47.5339 -120.2908 93° East 485 558 23,800 960 Climbing Seattle Center
01:34AM 47.5206 -120.0475 95° East 496 571 24,800 840 Climbing Seattle Center
01:35AM 47.5106 -119.8422 94° East 502 578 25,600 600 Climbing Seattle Center
01:36AM 47.4997 -119.6347 94° East 509 586 26,100 720 Climbing Seattle Center
01:37AM 47.4911 -119.4233 93° East 516 594 27,100 960 Climbing Seattle Center
01:38AM 47.4806 -119.2142 94° East 514 592 28,100 1,020 Climbing Seattle Center
01:39AM 47.4694 -119.0053 94° East 513 590 29,200 1,080 Climbing Seattle Center
01:40AM 47.4569 -118.8003 95° East 506 582 30,300 900 Climbing Seattle Center
01:41AM 47.4433 -118.5947 96° East 505 581 31,100 720 Climbing Seattle Center
01:42AM 47.4311 -118.3922 95° East 500 575 31,800 600 Climbing Seattle Center
01:43AM 47.4211 -118.1894 94° East 498 573 32,400 540 Climbing Seattle Center
01:44AM 47.4125 -117.9853 93° East 500 575 32,900 240 Climbing Seattle Center
01:45AM 47.4061 -117.7822 93° East 499 574 33,000  Climbing Seattle Center
01:46AM 47.3992 -117.5789 93° East 499 574 33,000 -60 Level Seattle Center
01:47AM 47.3908 -117.3769 93° East 500 575 32,900 -60 Descending Seattle Center
01:48AM 47.3817 -117.1761 94° East 501 577 32,900  Level Seattle Center
01:49AM 47.3731 -116.9764 94° East 501 577 32,900  Level Seattle Center
01:50AM 47.3656 -116.7761 93° East 498 573 32,900  Level Seattle Center
01:51AM 47.3536 -116.5328 94° East 501 577 33,000  Climbing Seattle Center
01:52AM 47.3436 -116.3303 94° East 500 575 33,000  Level Seattle Center
01:53AM 47.3333 -116.1272 94° East 499 574 33,000 -60 Level Seattle Center
01:54AM 47.3225 -115.9247 94° East 498 573 32,900  Descending Seattle Center
01:55AM 47.3136 -115.7342 94° East 497 572 33,000  Climbing Seattle Center
01:56AM 47.3008 -115.5350 95° East 494 568 33,000  Level Seattle Center
01:57AM 47.2900 -115.3358 95° East 492 566 33,000 -60 Level Seattle Center
01:58AM 47.2775 -115.1361 95° East 492 566 32,900  Descending Seattle Center
01:59AM 47.2653 -114.9386 95° East 490 564 33,000  Climbing Seattle Center
02:00AM 47.2503 -114.7403 96° East 490 564 32,900  Descending Seattle Center
02:01AM 47.2331 -114.5400 97° East 495 570 33,000  Climbing Seattle Center
02:02AM 47.2172 -114.3428 97° East 493 567 32,900  Descending Seattle Center
02:03AM 47.1942 -114.0608 97° East 505 581 33,000  Climbing Salt Lake Center
02:04AM 47.1772 -113.8686 97° East 483 556 33,000  Level Salt Lake Center
02:06AM 47.1419 -113.4781 97° East 487 560 33,000 -60 Level Salt Lake Center
02:07AM 47.1244 -113.2856 98° East 481 554 32,900 -60 Descending Salt Lake Center
02:08AM 47.1069 -113.0939 98° East 477 549 32,900  Level Salt Lake Center
02:09AM 47.0889 -112.9000 98° East 473 544 32,900  Level Salt Lake Center
02:10AM 47.0717 -112.7061 97° East 479 551 33,000  Climbing Salt Lake Center
02:11AM 47.0525 -112.5161 98° East 476 548 33,000  Level Salt Lake Center
02:12AM 47.0333 -112.3272 98° East 472 543 33,000  Level Salt Lake Center
02:13AM 47.0153 -112.1406 98° East 467 537 33,000 -60 Level Salt Lake Center
02:14AM 47.0017 -111.9544 96° East 463 533 32,900 -60 Descending Salt Lake Center
02:15AM 47.0083 -111.7628 87° East 471 542 32,900  Level Salt Lake Center
02:16AM 47.0136 -111.5703 88° East 476 548 33,000  Climbing Salt Lake Center
02:17AM 47.0189 -111.3806 88° East 473 544 33,000  Level Salt Lake Center
02:18AM 47.0244 -111.1886 87° East 474 545 33,000  Level Salt Lake Center
02:19AM 47.0294 -110.9583 88° East 476 548 33,000  Level Salt Lake Center
02:20AM 47.0339 -110.7683 88° East 473 544 33,000  Level Salt Lake Center
02:21AM 47.0381 -110.5772 88° East 472 543 33,000 -60 Level Salt Lake Center
02:22AM 47.0411 -110.3867 89° East 470 541 32,900 -60 Descending Salt Lake Center
02:23AM 47.0458 -110.1956 88° East 472 543 32,900  Level Salt Lake Center
02:24AM 47.0500 -110.0025 88° East 475 547 32,900  Level Salt Lake Center
02:25AM 47.0536 -109.8108 88° East 474 545 33,000  Climbing Salt Lake Center
02:26AM 47.0547 -109.6181 89° East 475 547 33,000  Level Salt Lake Center
02:27AM 47.0558 -109.4264 89° East 474 545 33,000  Level Salt Lake Center
02:28AM 47.0547 -109.2350 90° East 473 544 33,000 -60 Level Salt Lake Center
02:30AM 47.0553 -109.0461 90° East 468 539 32,900  Descending Salt Lake Center
02:31AM 47.0519 -108.8553 91° East 455 524 33,000  Climbing Salt Lake Center
02:32AM 47.0508 -108.6647 90° East 462 532 33,000  Level Salt Lake Center
02:33AM 47.0492 -108.4725 91° East 468 539 33,000  Level Salt Lake Center
02:34AM 47.0475 -108.2817 91° East 470 541 33,100  Climbing Salt Lake Center
02:35AM 47.0469 -108.0886 90° East 472 543 33,000 -60 Descending Salt Lake Center
02:36AM 47.0439 -107.9006 91° East 466 536 33,000  Level Salt Lake Center
02:37AM 47.0408 -107.7122 91° East 464 534 33,000  Level Salt Lake Center
02:38AM 47.0369 -107.5247 92° East 462 532 33,000  Level Salt Lake Center
02:39AM 47.0339 -107.3361 91° East 463 533 33,000  Level Salt Lake Center
02:40AM 47.0297 -107.1472 92° East 464 534 33,000  Level Salt Lake Center
02:41AM 47.0256 -106.9614 92° East 459 528 33,000  Level Salt Lake Center
02:42AM 47.0228 -106.7769 91° East 454 522 33,000  Level Salt Lake Center
02:43AM 47.0169 -106.5925 93° East 454 522 33,000  Level Salt Lake Center
02:44AM 47.0128 -106.4078 92° East 454 522 33,000 -60 Level Salt Lake Center
02:45AM 47.0078 -106.2317 92° East 452 520 32,900 -60 Descending Salt Lake Center
02:46AM 47.0014 -106.0447 93° East 457 526 32,900  Level Salt Lake Center
02:47AM 47.0006 -105.8169 90° East 465 535 33,000  Climbing Salt Lake Center
02:48AM 47.0019 -105.6289 89° East 466 536 33,000 -60 Level Salt Lake Center
02:49AM 47.0022 -105.4450 90° East 459 528 32,900  Descending Salt Lake Center
02:50AM 47.0025 -105.2608 90° East 456 525 33,000 60 Climbing Salt Lake Center
02:51AM 47.0028 -105.0786 90° East 453 521 33,100 780 Climbing Salt Lake Center
02:52AM 47.0025 -104.8978 90° East 450 518 34,600 840 Climbing Salt Lake Center
02:53AM 47.0025 -104.7242 90° East 438 504 34,900 180 Climbing Salt Lake Center
02:54AM 47.0014 -104.5519 90° East 429 494 35,000  Climbing Salt Lake Center
02:55AM 47.0019 -104.3803 90° East 426 490 34,900 -60 Descending Salt Lake Center
02:56AM 47.0014 -104.2100 90° East 424 488 34,900  Level Salt Lake Center
02:57AM 46.9989 -104.0367 91° East 426 490 34,900  Level Salt Lake Center
02:58AM 47.0003 -103.8667 89° East 424 488 34,900  Level Salt Lake Center
02:59AM 47.0022 -103.6936 89° East 426 490 35,000  Climbing Salt Lake Center
03:00AM 47.0033 -103.5214 89° East 426 490 34,900 -60 Descending Salt Lake Center
03:01AM 47.0033 -103.3478 90° East 426 490 34,900  Level Salt Lake Center
03:02AM 47.0042 -103.1667 90° East 435 501 35,000  Climbing Salt Lake Center
03:03AM 47.0053 -102.9875 89° East 440 506 35,000  Level Salt Lake Center
03:04AM 47.0069 -102.8092 89° East 441 507 35,000  Level Salt Lake Center
03:05AM 47.0047 -102.6322 91° East 440 506 35,000 -60 Level Salt Lake Center
03:06AM 47.0044 -102.4550 90° East 439 505 34,900 -60 Descending Salt Lake Center
03:07AM 47.0033 -102.2778 90° East 438 504 34,900  Level Salt Lake Center
03:08AM 47.0017 -102.1000 91° East 438 504 35,000  Climbing Salt Lake Center
03:09AM 47.0011 -101.8883 90° East 437 503 34,900 -60 Descending Salt Lake Center
03:10AM 47.0031 -101.6786 89° East 435 501 34,900  Level Minneapolis Center
03:11AM 47.0039 -101.4967 90° East 442 509 35,000  Climbing Minneapolis Center
03:12AM 47.0042 -101.2867 90° East 445 512 35,000  Level Minneapolis Center
03:13AM 47.0047 -101.1014 90° East 450 518 35,000  Level Minneapolis Center
03:14AM 47.0053 -100.9189 90° East 450 518 35,000  Level Minneapolis Center
03:15AM 47.0050 -100.7300 90° East 457 526 35,000  Level Minneapolis Center
03:16AM 47.0044 -100.5436 90° East 457 526 35,000 -60 Level Minneapolis Center
03:17AM 47.0039 -100.3739 90° East 458 527 34,900 -60 Descending Minneapolis Center
03:18AM 47.0031 -100.1831 90° East 466 536 34,900  Level Minneapolis Center
03:19AM 46.9947 -99.9889 94° East 474 545 35,000  Climbing Minneapolis Center
03:20AM 46.9561 -99.8067 107° East 470 541 35,000 -60 Level Minneapolis Center
03:21AM 46.9119 -99.6306 110° East 465 535 34,900  Descending Minneapolis Center
03:22AM 46.8689 -99.4528 109° East 465 535 35,000  Climbing Minneapolis Center
03:23AM 46.8247 -99.2739 110° East 469 540 35,000 -60 Level Minneapolis Center
03:24AM 46.7817 -99.0981 110° East 467 537 34,900 -60 Descending Minneapolis Center
03:25AM 46.7375 -98.9222 110° East 465 535 34,900  Level Minneapolis Center
03:26AM 46.6925 -98.7436 110° East 468 539 35,000  Climbing Minneapolis Center
03:27AM 46.6469 -98.5661 110° East 471 542 35,000  Level Minneapolis Center
03:28AM 46.6017 -98.3889 110° East 472 543 35,000  Level Minneapolis Center
03:29AM 46.5561 -98.2128 111° Southeast 470 541 35,000 -60 Level Minneapolis Center
03:30AM 46.5103 -98.0358 111° Southeast 471 542 34,900  Descending Minneapolis Center
03:31AM 46.4661 -97.8581 110° East 472 543 35,000  Climbing Minneapolis Center
03:32AM 46.4231 -97.6786 109° East 474 545 34,900 -60 Descending Minneapolis Center
03:33AM 46.3706 -97.4628 109° East 476 548 34,900  Level Minneapolis Center
03:34AM 46.3258 -97.2808 110° East 479 551 35,000  Climbing Minneapolis Center
03:35AM 46.2803 -97.0978 110° East 483 556 35,000 -60 Level Minneapolis Center
03:36AM 46.2353 -96.9147 110° East 486 559 34,900  Descending Minneapolis Center
03:37AM 46.1889 -96.7344 110° East 482 555 35,000  Climbing Minneapolis Center
03:38AM 46.1489 -96.5789 110° East 481 554 35,000  Level Minneapolis Center
03:39AM 46.1033 -96.3978 110° East 480 552 35,000  Level Minneapolis Center
03:40AM 46.0561 -96.2172 111° Southeast 482 555 35,000  Level Minneapolis Center
03:41AM 46.0092 -96.0378 111° Southeast 481 554 35,000  Level Minneapolis Center
03:42AM 45.9675 -95.8108 105° East 489 563 35,000  Level Minneapolis Center
03:43AM 45.9353 -95.6200 104° East 491 565 35,000  Level Minneapolis Center
03:44AM 45.9022 -95.4308 104° East 489 563 35,000  Level Minneapolis Center
03:45AM 45.8689 -95.2422 104° East 488 562 35,000  Level Minneapolis Center
03:46AM 45.8361 -95.0556 104° East 484 557 35,000  Level Minneapolis Center
03:47AM 45.8042 -94.8789 104° East 486 559 35,000  Level Minneapolis Center
03:48AM 45.7703 -94.6911 104° East 486 559 35,000  Level Minneapolis Center
03:49AM 45.7369 -94.5036 104° East 487 560 35,000  Level Minneapolis Center
03:50AM 45.7011 -94.3161 105° East 488 562 35,000  Level Minneapolis Center
03:51AM 45.6658 -94.1289 105° East 488 562 35,000 240 Level Minneapolis Center
03:52AM 45.6314 -93.9419 105° East 487 560 35,500 480 Climbing Minneapolis Center
03:53AM 45.5958 -93.7561 105° East 486 559 36,000 540 Climbing Minneapolis Center
03:54AM 45.5392 -93.5822 115° Southeast 485 558 36,700 480 Climbing Minneapolis Center
03:55AM 45.4822 -93.4119 115° Southeast 478 550 37,000 120 Climbing Minneapolis Center
03:56AM 45.4250 -93.2431 116° Southeast 474 545 37,000  Level Minneapolis Center
03:57AM 45.3644 -93.0689 116° Southeast 485 558 37,000  Level Minneapolis Center
03:58AM 45.3044 -92.8942 116° Southeast 488 562 37,000  Level Minneapolis Center
03:59AM 45.2428 -92.7222 117° Southeast 489 563 37,000  Level Minneapolis Center
04:00AM 45.1833 -92.5511 116° Southeast 484 557 37,000  Level Minneapolis Center
04:01AM 45.1222 -92.3836 117° Southeast 478 550 37,000  Level Minneapolis Center
04:02AM 45.0622 -92.2147 117° Southeast 478 550 37,000  Level Minneapolis Center
04:03AM 45.0008 -92.0461 117° Southeast 481 554 37,000  Level Minneapolis Center
04:04AM 44.9394 -91.8769 117° Southeast 483 556 37,000  Level Minneapolis Center
04:05AM 44.8764 -91.7089 118° Southeast 484 557 37,000  Level Minneapolis Center
04:06AM 44.8156 -91.5406 117° Southeast 484 557 37,000  Level Minneapolis Center
04:07AM 44.7542 -91.3731 117° Southeast 483 556 37,000  Level Minneapolis Center
04:08AM 44.6928 -91.2075 118° Southeast 481 554 37,000  Level Minneapolis Center
04:09AM 44.6308 -91.0422 118° Southeast 478 550 37,000  Level Minneapolis Center
04:10AM 44.5742 -90.8933 118° Southeast 476 548 37,000  Level Minneapolis Center
04:11AM 44.5122 -90.7283 118° Southeast 478 550 37,000  Level Minneapolis Center
04:12AM 44.4506 -90.5639 118° Southeast 478 550 37,000  Level Minneapolis Center
04:13AM 44.3856 -90.4003 119° Southeast 479 551 37,000  Level Minneapolis Center
04:14AM 44.3217 -90.2364 119° Southeast 481 554 37,000  Level Minneapolis Center
04:15AM 44.2583 -90.0708 118° Southeast 483 556 37,000  Level Minneapolis Center
04:16AM 44.1931 -89.9033 118° Southeast 489 563 37,000  Level Minneapolis Center
04:17AM 44.1150 -89.7036 119° Southeast 491 565 37,000  Level Minneapolis Center
04:18AM 44.0897 -89.6386 118° Southeast 490 564 37,000  Level Chicago Center
04:19AM 44.0233 -89.4719 119° Southeast 490 564 37,000  Level Chicago Center
04:25AM 43.6470 -88.5480 119° Southeast 100 115 37,000  Level FlightAware
04:25AM 43.6140 -88.4530 116° Southeast 470 541 37,000  Level FlightAware
04:25AM 43.6020 -88.4340 131° Southeast 470 541 37,000  Level FlightAware
04:26AM 43.5640 -88.3460 121° Southeast 483 556 37,000  Level FlightAware
04:27AM 43.5340 -88.2560 115° Southeast 483 556 37,000  Level FlightAware
04:27AM 43.4870 -88.1570 123° Southeast 510 587 37,000  Level FlightAware
04:27AM 43.4830 -88.1440 113° Southeast 510 587 37,000  Level FlightAware
04:27AM 43.4660 -88.1080 123° Southeast 510 587 37,000  Level FlightAware
04:28AM 43.4300 -88.0200 119° Southeast 490 564 37,000  Level FlightAware
04:29AM 43.3830 -87.9020 119° Southeast 491 565 37,000  Level FlightAware
04:29AM 43.3340 -87.7770 118° Southeast 491 565 37,000  Level FlightAware
04:30AM 43.2870 -87.6810 124° Southeast 489 563 37,000  Level FlightAware
04:31AM 43.2530 -87.5990 120° Southeast 489 563 37,000  Level FlightAware
04:31AM 43.2160 -87.5120 120° Southeast 489 563 37,000  Level FlightAware
04:32AM 43.1760 -87.4210 121° Southeast 497 572 37,000  Level FlightAware
04:32AM 43.1460 -87.3500 120° Southeast 495 570 37,000  Level FlightAware
04:32AM 43.1260 -87.3090 124° Southeast 492 566 37,000  Level FlightAware
04:33AM 43.1070 -87.2580 117° Southeast 490 564 37,000  Level FlightAware
04:33AM 43.0720 -87.1640 117° Southeast 490 564 37,000  Level FlightAware
04:34AM 42.9990 -87.0120 123° Southeast 490 564 37,000  Level FlightAware
04:35AM 42.9560 -86.9110 120° Southeast 495 570 37,000  Level FlightAware
04:35AM 42.9100 -86.8040 120° Southeast 497 572 37,000  Level FlightAware
04:36AM 42.8750 -86.7230 121° Southeast 482 555 37,000  Level FlightAware
04:37AM 42.8320 -86.6270 121° Southeast 490 564 37,000  Level FlightAware
04:37AM 42.7940 -86.5380 120° Southeast 502 578 37,000  Level FlightAware
04:38AM 42.7230 -86.3780 121° Southeast 489 563 37,000  Level FlightAware
04:39AM 42.6870 -86.2950 121° Southeast 489 563 37,000  Level FlightAware
04:39AM 42.6460 -86.2070 122° Southeast 459 528 37,000  Level FlightAware
04:39AM 42.6340 -86.1880 131° Southeast 504 580 37,000  Level FlightAware
04:39AM 42.6250 -86.1590 113° Southeast 492 566 37,000  Level FlightAware
04:40AM 42.5740 -86.0410 120° Southeast 490 564 37,000  Level FlightAware
04:41AM 42.5350 -85.9560 122° Southeast 486 559 37,000  Level FlightAware
04:42AM 42.4990 -85.8760 121° Southeast 486 559 37,000  Level FlightAware
04:42AM 42.4370 -85.7360 121° Southeast 460 529 37,000  Level FlightAware
04:43AM 42.4040 -85.6590 120° Southeast 460 529 37,000  Level FlightAware
04:44AM 42.3720 -85.5830 120° Southeast 460 529 37,000  Level FlightAware
04:44AM 42.3390 -85.5070 120° Southeast 460 529 37,000  Level FlightAware
04:45AM 42.3070 -85.4300 119° Southeast 460 529 37,000  Level FlightAware
04:45AM 42.2710 -85.3480 121° Southeast 460 529 37,000  Level FlightAware
04:46AM 42.2380 -85.2690 119° Southeast 460 529 37,000  Level FlightAware
04:47AM 42.2050 -85.1930 120° Southeast 460 529 37,000  Level FlightAware
04:47AM 42.1730 -85.1170 120° Southeast 460 529 37,000  Level FlightAware
04:48AM 42.1400 -85.0410 120° Southeast 460 529 37,000  Level FlightAware
04:48AM 42.1070 -84.9630 120° Southeast 460 529 37,000  Level FlightAware
04:49AM 42.0760 -84.8910 120° Southeast 460 529 37,000  Level FlightAware
04:50AM 42.0430 -84.8130 120° Southeast 460 529 37,000  Level FlightAware
04:50AM 42.0100 -84.7370 120° Southeast 460 529 37,000  Level FlightAware
04:51AM 41.8180 -84.4050 128° Southeast 460 529 37,000  Level FlightAware
04:52AM 41.7830 -84.3320 123° Southeast 460 529 37,000  Level FlightAware
04:52AM 41.7470 -84.2590 123° Southeast 460 529 37,000  Level FlightAware
04:53AM 41.7120 -84.1860 123° Southeast 460 529 37,000  Level FlightAware
04:53AM 41.6760 -84.1020 120° Southeast 456 525 37,000  Level FlightAware
04:54AM 41.6460 -84.0220 117° Southeast 456 525 37,000  Level FlightAware
04:54AM 41.5910 -83.9910 157° South 456 525 37,000  Level FlightAware
04:55AM 41.5420 -83.9250 135° Southeast 456 525 37,000  Level FlightAware
04:55AM 41.4960 -83.8640 135° Southeast 456 525 37,000  Level FlightAware
04:56AM 41.4500 -83.8030 135° Southeast 456 525 37,000  Level FlightAware
04:57AM 41.4050 -83.7420 135° Southeast 456 525 37,000  Level FlightAware
04:57AM 41.3590 -83.6810 135° Southeast 456 525 37,000  Level FlightAware
04:58AM 41.3130 -83.6210 136° Southeast 456 525 37,000  Level FlightAware
04:58AM 41.2680 -83.5600 134° Southeast 456 525 37,000  Level FlightAware
04:59AM 41.2220 -83.4990 135° Southeast 456 525 37,000  Level FlightAware
05:00AM 41.1770 -83.4390 135° Southeast 456 525 37,000  Level FlightAware
05:00AM 41.1330 -83.3810 135° Southeast 456 525 37,000  Level FlightAware
05:01AM 41.0880 -83.3210 135° Southeast 456 525 37,000  Level FlightAware
05:01AM 41.0400 -83.2570 135° Southeast 456 525 37,000  Level FlightAware
05:02AM 40.9940 -83.1960 135° Southeast 456 525 37,000  Level FlightAware
05:03AM 40.9480 -83.1360 135° Southeast 456 525 37,000  Level FlightAware
05:03AM 40.9030 -83.0750 134° Southeast 456 525 37,000  Level FlightAware
05:04AM 40.8570 -83.0150 135° Southeast 456 525 37,000 -540 Level FlightAware
05:04AM 40.8383 -82.4011 135° Southeast 471 542 36,400 -660 Descending Cleveland Center
05:05AM 40.7658 -82.2589 124° Southeast 466 536 36,000 -240 Descending Cleveland Center
05:06AM 40.6933 -82.1161 124° Southeast 466 536 36,000  Level Cleveland Center
05:07AM 40.6194 -81.9728 124° Southeast 469 540 36,000  Level Cleveland Center
05:08AM 40.5606 -81.8575 124° Southeast 465 535 36,000  Level Indianapolis Center
05:09AM 40.4883 -81.7164 124° Southeast 463 533 36,000  Level Indianapolis Center
05:10AM 40.4022 -81.5508 124° Southeast 465 535 36,000  Level Cleveland Center
05:11AM 40.3408 -81.4325 124° Southeast 470 541 36,000  Level Indianapolis Center
05:12AM 40.2664 -81.2911 125° Southeast 469 540 36,100  Climbing Indianapolis Center
05:13AM 40.1922 -81.1497 124° Southeast 469 540 36,000 -60 Descending Indianapolis Center
05:14AM 40.1189 -81.0103 124° Southeast 464 534 36,000 -480 Level Indianapolis Center
05:15AM 40.0442 -80.8700 125° Southeast 466 536 35,100 -1,500 Descending Indianapolis Center
05:16AM 39.9742 -80.7317 123° Southeast 458 527 33,000 -1,080 Descending Indianapolis Center
05:17AM 39.9042 -80.5811 121° Southeast 466 536 33,000  Level Indianapolis Center
05:18AM 39.8356 -80.4375 122° Southeast 465 535 33,000  Level Indianapolis Center
05:19AM 39.7683 -80.2944 121° Southeast 463 533 33,000  Level Indianapolis Center
05:20AM 39.7050 -80.1522 120° Southeast 454 522 33,000  Level Indianapolis Center
05:21AM 39.6694 -79.9911 106° East 461 531 33,000  Level Indianapolis Center
05:22AM 39.6547 -79.9203 105° East 455 524 33,000  Level Washington Center
05:23AM 39.6264 -79.8014 107° East 456 525 33,000 -240 Level Cleveland Center
05:24AM 39.5908 -79.6431 106° East 459 528 32,600 -1,620 Descending Cleveland Center
05:25AM 39.5547 -79.4850 106° East 460 529 29,800 -2,400 Descending Cleveland Center
05:26AM 39.5197 -79.3342 107° East 449 517 27,800 -2,160 Descending Cleveland Center
05:27AM 39.4850 -79.1886 107° East 430 495 25,500 -2,340 Descending Cleveland Center
05:28AM 39.4514 -79.0467 107° East 419 482 23,100 -2,460 Descending Cleveland Center
05:29AM 39.4167 -78.8997 107° East 407 468 20,600 -2,340 Descending Cleveland Center
05:30AM 39.3839 -78.7656 108° East 393 452 18,500 -2,340 Descending Cleveland Center
05:31AM 39.3528 -78.6308 107° East 391 450 15,900 -2,460 Descending Cleveland Center
05:32AM 39.3203 -78.5003 108° East 386 444 13,600 -1,440 Descending Cleveland Center
05:33AM 39.2906 -78.3772 107° East 368 423 13,000 -540 Descending Cleveland Center
05:34AM 39.2392 -78.2750 123° Southeast 343 395 12,600 -1,140 Descending Cleveland Center
05:35AM 39.1744 -78.1894 134° Southeast 333 383 10,800 -1,440 Descending Cleveland Center
05:36AM 39.1064 -78.1136 139° Southeast 327 376 9,800 -1,200 Descending Cleveland Center
05:37AM 39.0217 -78.0522 151° Southeast 312 359 8,200 -1,260 Descending Washington Center
05:38AM 38.9539 -78.0019 150° Southeast 291 335 7,100 -1,200 Descending Washington Center
05:39AM 38.8861 -77.9492 149° Southeast 291 335 5,900 -1,200 Descending Washington Center
05:40AM 38.8225 -77.8964 147° Southeast 291 335 4,800 -960 Descending Washington Center
05:41AM 38.7567 -77.8492 151° Southeast 286 329 4,000 -300 Descending Washington Center
05:43AM 38.6500 -77.7333 140° Southeast 261 300 4,000  Level Potomac TRACON
05:44AM 38.6333 -77.6500 104° East 256 295 4,000 -300 Level Potomac TRACON
05:45AM 38.6333 -77.5667 90° East 226 260 3,400 -540 Descending Potomac TRACON
05:46AM 38.6667 -77.5167 49° Northeast 204 235 3,000 -240 Descending Potomac TRACON
05:47AM 38.7167 -77.4667 38° Northeast 208 239 3,000  Level Potomac TRACON
05:48AM 38.7667 -77.4333 27° Northeast 198 228 3,000 -300 Level Potomac TRACON
05:49AM 38.8167 -77.4333 360° North 169 194 2,500 -660 Descending Potomac TRACON
05:50AM 38.8500 -77.4333 360° North 137 158 1,700 -780 Descending Potomac TRACON
05:51AM 38.8833 -77.4333 360° North 127 146 1,100 -720 Descending Potomac TRACON